createdAt,value
2023-05-22T00:00:28.540Z,5.57
2023-05-22T00:02:57.742Z,5.20
2023-05-22T00:05:28.559Z,5.07
2023-05-22T00:07:57.600Z,5.70
2023-05-22T00:10:26.720Z,5.37
2023-05-22T00:12:55.939Z,5.77
2023-05-22T00:15:24.942Z,4.97
2023-05-22T00:17:54.214Z,4.73
2023-05-22T00:20:23.498Z,5.00
2023-05-22T00:22:54.628Z,6.00
2023-05-22T00:25:23.659Z,5.50
2023-05-22T00:27:52.533Z,6.07
2023-05-22T00:30:21.673Z,5.80
2023-05-22T00:32:50.707Z,5.83
2023-05-22T00:35:19.743Z,5.90
2023-05-22T00:37:48.691Z,4.97
2023-05-22T00:40:19.689Z,5.53
2023-05-22T00:42:49.051Z,5.37
2023-05-22T00:45:18.307Z,6.20
2023-05-22T00:47:47.728Z,4.90
2023-05-22T00:50:17.006Z,5.20
2023-05-22T00:52:48.184Z,4.60
2023-05-22T00:55:19.750Z,4.57
2023-05-22T00:57:50.006Z,5.43
2023-05-22T01:00:19.689Z,5.30
2023-05-22T01:02:49.142Z,6.60
2023-05-22T01:05:18.414Z,4.80
2023-05-22T01:07:48.023Z,5.30
2023-05-22T01:10:17.081Z,5.93
2023-05-22T01:12:56.660Z,5.30
2023-05-22T01:15:33.253Z,6.30
2023-05-22T01:18:12.792Z,5.00
2023-05-22T01:20:50.174Z,5.17
2023-05-22T01:23:47.595Z,5.77
2023-05-22T01:27:05.036Z,6.20
2023-05-22T01:29:47.785Z,4.93
2023-05-22T01:32:22.206Z,5.93
2023-05-22T01:34:57.546Z,6.07
2023-05-22T01:37:27.248Z,5.73
2023-05-22T01:39:57.336Z,5.80
2023-05-22T01:42:26.873Z,5.73
2023-05-22T01:44:56.029Z,5.67
2023-05-22T01:47:26.477Z,5.83
2023-05-22T01:49:55.658Z,5.00
2023-05-22T01:52:30.538Z,5.00
2023-05-22T01:55:07.444Z,6.03
2023-05-22T01:57:46.909Z,5.30
2023-05-22T02:00:18.566Z,5.30
2023-05-22T02:02:54.868Z,5.50
2023-05-22T02:05:26.201Z,4.70
2023-05-22T02:07:59.664Z,5.27
2023-05-22T02:10:30.850Z,4.40
2023-05-22T02:13:02.930Z,4.97
2023-05-22T02:15:32.340Z,5.70
2023-05-22T02:18:03.400Z,5.47
2023-05-22T02:20:32.653Z,5.10
2023-05-22T02:23:02.850Z,5.23
2023-05-22T02:25:32.072Z,5.80
2023-05-22T02:28:01.820Z,5.10
2023-05-22T02:30:30.958Z,5.23
2023-05-22T02:33:05.581Z,5.53
2023-05-22T02:35:34.657Z,4.67
2023-05-22T02:38:03.748Z,5.80
2023-05-22T02:40:33.404Z,5.63
2023-05-22T02:43:02.430Z,5.17
2023-05-22T02:45:31.665Z,5.40
2023-05-22T02:48:03.889Z,5.63
2023-05-22T02:50:34.250Z,5.90
2023-05-22T02:53:03.945Z,5.37
2023-05-22T02:55:32.852Z,5.57
2023-05-22T02:58:01.914Z,6.00
2023-05-22T03:00:31.440Z,4.40
2023-05-22T03:03:00.495Z,5.27
2023-05-22T03:05:31.795Z,4.60
2023-05-22T03:08:00.920Z,4.90
2023-05-22T03:10:30.200Z,5.30
2023-05-22T03:12:59.232Z,4.37
2023-05-22T03:15:28.298Z,5.03
2023-05-22T03:18:00.790Z,4.90
2023-05-22T03:20:31.460Z,7.53
2023-05-22T03:23:01.074Z,4.97
2023-05-22T03:25:30.143Z,5.50
2023-05-22T03:27:59.153Z,5.80
2023-05-22T03:30:30.200Z,6.57
2023-05-22T03:33:11.793Z,5.37
2023-05-22T03:35:44.677Z,6.27
2023-05-22T03:38:13.968Z,5.70
2023-05-22T03:40:43.058Z,5.43
2023-05-22T03:43:12.384Z,5.30
2023-05-22T03:45:41.600Z,5.43
2023-05-22T03:48:11.354Z,5.87
2023-05-22T03:50:40.700Z,5.30
2023-05-22T03:53:11.318Z,7.00
2023-05-22T03:55:40.300Z,6.40
2023-05-22T03:58:09.408Z,5.27
2023-05-22T04:00:38.803Z,6.40
2023-05-22T04:03:13.003Z,6.13
2023-05-22T04:05:42.168Z,5.70
2023-05-22T04:08:13.920Z,5.33
2023-05-22T04:10:46.618Z,5.80
2023-05-22T04:13:15.996Z,5.87
2023-05-22T04:15:46.160Z,5.70
2023-05-22T04:18:15.603Z,5.90
2023-05-22T04:20:44.751Z,5.97
2023-05-22T04:23:18.889Z,5.47
2023-05-22T04:25:48.183Z,6.07
2023-05-22T04:28:18.360Z,5.47
2023-05-22T04:30:48.694Z,8.17
2023-05-22T04:33:18.271Z,5.80
2023-05-22T04:35:48.350Z,7.10
2023-05-22T04:38:19.186Z,6.43
2023-05-22T04:40:48.506Z,6.27
2023-05-22T04:43:18.880Z,7.10
2023-05-22T04:45:47.844Z,6.90
2023-05-22T04:48:16.881Z,6.60
2023-05-22T04:50:46.529Z,5.33
2023-05-22T04:53:17.310Z,6.37
2023-05-22T04:55:46.282Z,6.40
2023-05-22T04:58:15.193Z,5.60
2023-05-22T05:00:45.101Z,6.13
2023-05-22T05:03:14.522Z,6.37
2023-05-22T05:05:44.915Z,6.03
2023-05-22T05:08:14.322Z,5.60
2023-05-22T05:10:44.948Z,6.30
2023-05-22T05:13:13.922Z,6.13
2023-05-22T05:15:42.849Z,6.53
2023-05-22T05:18:12.379Z,6.40
2023-05-22T05:20:41.493Z,6.23
2023-05-22T05:23:11.558Z,6.73
2023-05-22T05:25:40.662Z,6.47
2023-05-22T05:28:12.139Z,6.50
2023-05-22T05:30:43.218Z,6.00
2023-05-22T05:33:24.917Z,6.37
2023-05-22T05:36:27.078Z,7.00
2023-05-22T05:38:58.578Z,6.37
2023-05-22T05:41:28.765Z,6.60
2023-05-22T05:44:05.989Z,6.67
2023-05-22T05:46:36.008Z,6.67
2023-05-22T05:49:11.273Z,6.97
2023-05-22T05:51:42.378Z,6.80
2023-05-22T05:54:12.999Z,6.40
2023-05-22T05:56:42.098Z,7.50
2023-05-22T05:59:12.499Z,6.90
2023-05-22T06:01:44.666Z,7.10
2023-05-22T06:04:20.505Z,6.63
2023-05-22T06:06:55.526Z,5.83
2023-05-22T06:09:32.643Z,6.00
2023-05-22T06:12:21.606Z,6.77
2023-05-22T06:14:52.203Z,6.20
2023-05-22T06:17:22.081Z,6.47
2023-05-22T06:19:51.867Z,6.10
2023-05-22T06:22:21.166Z,6.90
2023-05-22T06:24:52.687Z,6.60
2023-05-22T06:27:24.083Z,6.60
2023-05-22T06:29:54.626Z,7.17
2023-05-22T06:32:24.848Z,6.63
2023-05-22T06:34:55.528Z,7.00
2023-05-22T06:37:24.543Z,7.17
2023-05-22T06:39:54.626Z,6.90
2023-05-22T06:42:33.680Z,7.37
2023-05-22T06:45:23.996Z,6.43
2023-05-22T06:48:19.612Z,7.40
2023-05-22T06:51:06.794Z,6.80
2023-05-22T06:53:36.018Z,6.17
2023-05-22T06:56:05.131Z,7.90
2023-05-22T06:59:06.581Z,7.10
2023-05-22T07:02:02.962Z,7.30
2023-05-22T07:04:58.421Z,7.20
2023-05-22T07:07:43.045Z,8.37
2023-05-22T07:10:12.485Z,7.20
2023-05-22T07:12:41.879Z,7.60
2023-05-22T07:15:14.574Z,7.37
2023-05-22T07:17:50.995Z,8.37
2023-05-22T07:20:20.218Z,6.70
2023-05-22T07:23:04.886Z,6.83
2023-05-22T07:25:33.895Z,7.00
2023-05-22T07:28:08.690Z,8.57
2023-05-22T07:30:42.498Z,7.13
2023-05-22T07:33:14.086Z,7.30
2023-05-22T07:35:43.318Z,7.50
2023-05-22T07:38:12.279Z,6.80
2023-05-22T07:40:45.886Z,7.30
2023-05-22T07:43:15.675Z,8.83
2023-05-22T07:45:45.249Z,8.00
2023-05-22T07:48:18.304Z,8.50
2023-05-22T07:50:47.873Z,7.60
2023-05-22T07:53:17.600Z,8.17
2023-05-22T07:55:51.005Z,8.47
2023-05-22T07:58:24.199Z,7.30
2023-05-22T08:00:53.801Z,7.37
2023-05-22T08:03:24.663Z,7.40
2023-05-22T08:05:53.757Z,6.87
2023-05-22T08:08:22.828Z,7.23
2023-05-22T08:11:02.921Z,7.70
2023-05-22T08:13:33.086Z,7.80
2023-05-22T08:16:02.295Z,7.53
2023-05-22T08:18:32.764Z,7.07
2023-05-22T08:21:02.151Z,7.60
2023-05-22T08:23:40.116Z,7.30
2023-05-22T08:26:09.886Z,7.73
2023-05-22T08:28:42.123Z,7.00
2023-05-22T08:31:11.419Z,7.50
2023-05-22T08:33:41.837Z,5.53
2023-05-22T08:36:13.291Z,6.60
2023-05-22T08:38:42.405Z,6.30
2023-05-22T08:41:12.302Z,6.30
2023-05-22T08:43:42.111Z,6.83
2023-05-22T08:46:11.997Z,6.57
2023-05-22T08:48:42.708Z,5.60
2023-05-22T08:51:19.924Z,7.00
2023-05-22T08:53:52.806Z,6.87
2023-05-22T08:56:22.409Z,7.50
2023-05-22T08:58:52.490Z,5.93
2023-05-22T09:01:22.165Z,6.33
2023-05-22T09:03:53.471Z,6.10
2023-05-22T09:06:22.466Z,5.83
2023-05-22T09:08:51.955Z,5.53
2023-05-22T09:11:21.158Z,6.13
2023-05-22T09:13:51.516Z,5.80
2023-05-22T09:16:21.408Z,5.60
2023-05-22T09:18:52.083Z,5.47
2023-05-22T09:21:30.022Z,6.17
2023-05-22T09:24:02.299Z,5.80
2023-05-22T09:26:33.012Z,6.13
2023-05-22T09:29:03.143Z,5.53
2023-05-22T09:31:32.239Z,5.93
2023-05-22T09:34:02.964Z,4.83
2023-05-22T09:36:37.115Z,5.37
2023-05-22T09:39:06.550Z,5.97
2023-05-22T09:41:37.557Z,5.40
2023-05-22T09:44:14.935Z,5.83
2023-05-22T09:46:46.363Z,5.13
2023-05-22T09:49:17.587Z,5.23
2023-05-22T09:51:49.127Z,5.60
2023-05-22T09:54:20.046Z,5.60
2023-05-22T09:56:51.408Z,5.70
2023-05-22T09:59:23.731Z,5.00
2023-05-22T10:01:53.841Z,6.47
2023-05-22T10:04:25.977Z,5.27
2023-05-22T10:06:58.792Z,5.80
2023-05-22T10:09:33.674Z,6.90
2023-05-22T10:12:07.404Z,4.47
2023-05-22T10:14:37.635Z,5.23
2023-05-22T10:17:07.564Z,6.10
2023-05-22T10:19:40.470Z,5.57
2023-05-22T10:22:14.979Z,5.33
2023-05-22T10:24:47.275Z,5.23
2023-05-22T10:27:16.530Z,6.30
2023-05-22T10:30:00.231Z,6.40
2023-05-22T10:32:41.679Z,6.63
2023-05-22T10:35:22.035Z,5.77
2023-05-22T10:37:57.811Z,4.50
2023-05-22T10:40:31.638Z,5.90
2023-05-22T10:43:01.792Z,5.60
2023-05-22T10:45:31.976Z,5.60
2023-05-22T10:48:05.477Z,5.23
2023-05-22T10:50:36.556Z,6.17
2023-05-22T10:53:22.256Z,5.80
2023-05-22T10:55:52.187Z,5.40
2023-05-22T10:58:28.551Z,5.33
2023-05-22T11:01:15.196Z,5.83
2023-05-22T11:03:55.208Z,4.70
2023-05-22T11:06:39.379Z,4.43
2023-05-22T11:09:22.922Z,5.17
2023-05-22T11:12:16.389Z,5.50
2023-05-22T11:14:49.444Z,4.70
2023-05-22T11:17:22.597Z,7.07
2023-05-22T11:20:00.578Z,5.20
2023-05-22T11:22:39.932Z,5.57
2023-05-22T11:25:16.839Z,5.30
2023-05-22T11:27:46.598Z,4.97
2023-05-22T11:30:16.439Z,4.90
2023-05-22T11:32:48.058Z,5.17
2023-05-22T11:35:18.355Z,4.47
2023-05-22T11:37:50.219Z,4.90
2023-05-22T11:40:22.107Z,4.57
2023-05-22T11:42:51.101Z,4.60
2023-05-22T11:45:20.246Z,3.80
2023-05-22T11:47:49.772Z,4.80
2023-05-22T11:50:33.354Z,3.97
2023-05-22T11:53:09.599Z,4.10
2023-05-22T11:55:41.011Z,4.30
2023-05-22T11:58:09.960Z,4.43
2023-05-22T12:00:39.208Z,4.80
2023-05-22T12:03:08.588Z,4.73
2023-05-22T12:05:38.089Z,4.97
2023-05-22T12:08:08.507Z,4.27
2023-05-22T12:10:37.828Z,4.70
2023-05-22T12:13:07.286Z,5.10
2023-05-22T12:15:36.207Z,4.40
2023-05-22T12:18:09.083Z,4.80
2023-05-22T12:20:42.875Z,4.60
2023-05-22T12:23:22.068Z,5.00
2023-05-22T12:25:59.113Z,4.10
2023-05-22T12:28:28.229Z,4.73
2023-05-22T12:30:57.721Z,5.83
2023-05-22T12:33:29.848Z,4.50
2023-05-22T12:35:59.454Z,4.80
2023-05-22T12:38:34.771Z,4.50
2023-05-22T12:41:04.724Z,4.27
2023-05-22T12:43:33.879Z,4.10
2023-05-22T12:46:03.120Z,4.37
2023-05-22T12:48:32.170Z,3.60
2023-05-22T12:51:01.151Z,4.23
2023-05-22T12:53:31.657Z,4.97
2023-05-22T12:56:00.658Z,3.83
2023-05-22T12:58:29.603Z,4.63
2023-05-22T13:00:58.602Z,4.80
2023-05-22T13:03:27.635Z,4.10
2023-05-22T13:05:56.642Z,4.10
2023-05-22T13:08:25.588Z,3.70
2023-05-22T13:10:56.952Z,3.67
2023-05-22T13:13:26.002Z,3.80
2023-05-22T13:15:55.024Z,4.20
2023-05-22T13:18:23.957Z,5.30
2023-05-22T13:20:52.973Z,4.10
2023-05-22T13:23:22.067Z,5.00
2023-05-22T13:25:51.196Z,4.27
2023-05-22T13:28:21.547Z,4.03
2023-05-22T13:30:50.519Z,4.03
2023-05-22T13:33:19.493Z,4.10
2023-05-22T13:35:48.709Z,3.50
2023-05-22T13:38:17.775Z,3.90
2023-05-22T13:40:48.477Z,4.53
2023-05-22T13:43:17.819Z,4.50
2023-05-22T13:45:48.312Z,4.20
2023-05-22T13:48:17.278Z,4.20
2023-05-22T13:50:46.634Z,4.33
2023-05-22T13:53:15.641Z,4.13
2023-05-22T13:55:45.521Z,3.87
2023-05-22T13:58:14.506Z,3.50
2023-05-22T14:00:43.490Z,6.27
2023-05-22T14:03:17.544Z,5.23
2023-05-22T14:05:47.076Z,5.47
2023-05-22T14:08:16.358Z,4.93
2023-05-22T14:10:46.288Z,3.90
2023-05-22T14:13:15.354Z,4.63
2023-05-22T14:15:46.924Z,4.70
2023-05-22T14:18:17.663Z,3.30
2023-05-22T14:20:47.165Z,4.20
2023-05-22T14:23:16.256Z,4.80
2023-05-22T14:25:45.280Z,3.63
2023-05-22T14:28:15.054Z,4.43
2023-05-22T14:30:44.309Z,5.13
2023-05-22T14:33:13.426Z,4.60
2023-05-22T14:35:44.481Z,5.80
2023-05-22T14:38:13.487Z,5.57
2023-05-22T14:40:42.441Z,5.27
2023-05-22T14:43:11.414Z,5.07
2023-05-22T14:45:40.733Z,4.93
2023-05-22T14:48:11.611Z,5.80
2023-05-22T14:50:40.523Z,4.43
2023-05-22T14:53:11.694Z,4.77
2023-05-22T14:55:40.833Z,5.30
2023-05-22T14:58:10.068Z,3.80
2023-05-22T15:00:39.205Z,3.67
2023-05-22T15:03:08.340Z,4.10
2023-05-22T15:05:37.505Z,3.90
2023-05-22T15:08:06.867Z,4.90
2023-05-22T15:10:37.620Z,4.23
2023-05-22T15:13:06.624Z,4.23
2023-05-22T15:15:35.542Z,4.37
2023-05-22T15:18:04.955Z,4.00
2023-05-22T15:20:34.809Z,4.50
2023-05-22T15:23:04.097Z,4.10
2023-05-22T15:25:36.418Z,4.57
2023-05-22T15:28:07.894Z,4.30
2023-05-22T15:30:38.991Z,4.00
2023-05-22T15:33:08.097Z,4.20
2023-05-22T15:35:37.301Z,4.70
2023-05-22T15:38:06.991Z,5.10
2023-05-22T15:40:36.110Z,4.63
2023-05-22T15:43:07.096Z,4.60
2023-05-22T15:45:37.998Z,3.97
2023-05-22T15:48:07.914Z,3.80
2023-05-22T15:50:37.052Z,3.90
2023-05-22T15:53:06.714Z,4.83
2023-05-22T15:55:36.707Z,4.87
2023-05-22T15:58:08.052Z,3.30
2023-05-22T16:00:41.250Z,4.70
2023-05-22T16:03:11.500Z,4.50
2023-05-22T16:05:41.835Z,5.10
2023-05-22T16:08:11.151Z,4.20
2023-05-22T16:10:42.068Z,5.00
2023-05-22T16:13:13.174Z,4.60
2023-05-22T16:15:44.653Z,3.90
2023-05-22T16:18:14.074Z,4.57
2023-05-22T16:20:43.056Z,4.60
2023-05-22T16:23:12.153Z,4.37
2023-05-22T16:25:41.572Z,3.90
2023-05-22T16:28:12.486Z,5.10
2023-05-22T16:30:41.576Z,3.87
2023-05-22T16:33:11.007Z,4.83
2023-05-22T16:35:40.323Z,4.10
2023-05-22T16:38:12.214Z,3.90
2023-05-22T16:40:41.417Z,3.83
2023-05-22T16:43:13.832Z,4.27
2023-05-22T16:45:46.599Z,4.83
2023-05-22T16:48:15.853Z,5.03
2023-05-22T16:50:46.696Z,4.37
2023-05-22T16:53:17.407Z,4.73
2023-05-22T16:55:46.430Z,3.50
2023-05-22T16:58:16.819Z,4.73
2023-05-22T17:00:47.026Z,4.37
2023-05-22T17:03:16.805Z,4.13
2023-05-22T17:05:47.577Z,4.67
2023-05-22T17:08:17.438Z,5.60
2023-05-22T17:10:46.616Z,4.53
2023-05-22T17:13:21.058Z,5.40
2023-05-22T17:15:52.194Z,4.57
2023-05-22T17:18:22.051Z,4.20
2023-05-22T17:20:54.016Z,4.70
2023-05-22T17:23:23.959Z,4.00
2023-05-22T17:25:53.198Z,4.53
2023-05-22T17:28:24.693Z,4.20
2023-05-22T17:30:54.195Z,4.77
2023-05-22T17:33:23.656Z,5.20
2023-05-22T17:35:53.172Z,4.10
2023-05-22T17:38:22.683Z,3.83
2023-05-22T17:40:52.195Z,4.47
2023-05-22T17:43:23.206Z,4.40
2023-05-22T17:45:53.147Z,4.97
2023-05-22T17:48:23.792Z,5.03
2023-05-22T17:50:53.295Z,4.60
2023-05-22T17:53:25.702Z,7.33
2023-05-22T17:55:55.030Z,4.97
2023-05-22T17:58:25.894Z,5.23
2023-05-22T18:00:54.970Z,8.20
2023-05-22T18:03:28.756Z,4.53
2023-05-22T18:05:59.232Z,4.87
2023-05-22T18:08:28.474Z,4.20
2023-05-22T18:11:00.114Z,5.00
2023-05-22T18:13:31.000Z,4.60
2023-05-22T18:16:02.188Z,5.20
2023-05-22T18:18:31.614Z,4.83
2023-05-22T18:21:01.232Z,5.70
2023-05-22T18:23:31.037Z,5.77
2023-05-22T18:26:00.351Z,4.00
2023-05-22T18:28:31.166Z,4.60
2023-05-22T18:31:02.631Z,5.10
2023-05-22T18:33:33.706Z,4.17
2023-05-22T18:36:04.561Z,4.03
2023-05-22T18:38:34.357Z,5.20
2023-05-22T18:41:04.029Z,5.03
2023-05-22T18:43:35.731Z,6.03
2023-05-22T18:46:05.242Z,10.53
2023-05-22T18:48:34.917Z,5.40
2023-05-22T18:51:12.055Z,5.43
2023-05-22T18:53:41.505Z,4.30
2023-05-22T18:56:14.098Z,5.83
2023-05-22T18:58:46.656Z,5.87
2023-05-22T19:01:16.946Z,4.90
2023-05-22T19:03:49.137Z,4.80
2023-05-22T19:06:19.300Z,5.73
2023-05-22T19:08:49.634Z,4.60
2023-05-22T19:11:19.357Z,5.47
2023-05-22T19:13:50.545Z,6.87
2023-05-22T19:16:23.976Z,9.83
2023-05-22T19:18:56.778Z,4.93
2023-05-22T19:21:26.578Z,5.50
2023-05-22T19:23:56.052Z,5.40
2023-05-22T19:26:26.676Z,4.70
2023-05-22T19:28:59.561Z,6.50
2023-05-22T19:31:37.684Z,5.33
2023-05-22T19:34:07.223Z,5.67
2023-05-22T19:36:37.454Z,4.90
2023-05-22T19:39:10.412Z,5.27
2023-05-22T19:41:47.866Z,4.07
2023-05-22T19:44:19.996Z,4.90
2023-05-22T19:46:52.217Z,4.97
2023-05-22T19:49:24.934Z,4.80
2023-05-22T19:51:56.160Z,4.53
2023-05-22T19:54:32.063Z,5.67
2023-05-22T19:57:01.817Z,4.67
2023-05-22T19:59:36.808Z,5.93
2023-05-22T20:02:07.150Z,5.20
2023-05-22T20:04:36.792Z,5.37
2023-05-22T20:07:10.696Z,5.13
2023-05-22T20:09:58.388Z,5.37
2023-05-22T20:12:38.425Z,3.83
2023-05-22T20:15:18.169Z,5.00
2023-05-22T20:17:53.946Z,5.60
2023-05-22T20:20:24.896Z,5.43
2023-05-22T20:23:03.428Z,4.63
2023-05-22T20:25:38.384Z,4.57
2023-05-22T20:31:53.098Z,5.00
2023-05-22T20:34:44.533Z,5.67
2023-05-22T20:37:17.768Z,4.40
2023-05-22T20:39:52.291Z,4.53
2023-05-22T20:42:26.201Z,4.63
2023-05-22T20:45:03.604Z,5.40
2023-05-22T20:47:50.895Z,5.50
2023-05-22T20:50:32.371Z,6.80
2023-05-22T20:53:19.765Z,6.33
2023-05-22T20:55:54.664Z,5.13
2023-05-22T20:58:36.473Z,4.10
2023-05-22T21:01:10.535Z,4.93
2023-05-22T21:03:41.636Z,5.30
2023-05-22T21:06:11.348Z,5.43
2023-05-22T21:08:40.866Z,5.40
2023-05-22T21:11:10.343Z,5.30
2023-05-22T21:13:39.638Z,10.40
2023-05-22T21:16:09.363Z,6.33
2023-05-22T21:18:40.689Z,5.20
2023-05-22T21:21:09.926Z,5.20
2023-05-22T21:23:38.964Z,5.70
2023-05-22T21:26:11.323Z,5.37
2023-05-22T21:28:44.504Z,4.50
2023-05-22T21:31:15.393Z,5.03
2023-05-22T21:33:46.573Z,4.70
2023-05-22T21:36:18.042Z,3.90
2023-05-22T21:39:47.674Z,4.80
2023-05-22T21:42:51.928Z,5.27
2023-05-22T21:45:24.621Z,4.67
2023-05-22T21:48:01.139Z,4.50
2023-05-22T21:50:32.428Z,4.23
2023-05-22T21:53:05.184Z,4.30
2023-05-22T21:55:36.199Z,4.53
2023-05-22T21:58:05.814Z,4.47
2023-05-22T22:00:35.264Z,4.07
2023-05-22T22:03:05.119Z,5.10
2023-05-22T22:05:37.722Z,4.63
2023-05-22T22:08:10.908Z,4.03
2023-05-22T22:10:40.920Z,5.37
2023-05-22T22:13:10.196Z,5.53
2023-05-22T22:15:40.022Z,6.00
2023-05-22T22:18:10.010Z,4.83
2023-05-22T22:20:45.068Z,5.23
2023-05-22T22:23:15.355Z,5.60
2023-05-22T22:25:44.721Z,5.20
2023-05-22T22:28:14.314Z,5.60
2023-05-22T22:30:44.202Z,4.50
2023-05-22T22:33:13.986Z,5.13
2023-05-22T22:35:45.092Z,4.03
2023-05-22T22:38:14.793Z,5.07
2023-05-22T22:40:44.639Z,6.20
2023-05-22T22:43:14.058Z,5.30
2023-05-22T22:45:44.446Z,5.33
2023-05-22T22:48:16.794Z,4.63
2023-05-22T22:50:47.851Z,4.70
2023-05-22T22:53:17.954Z,4.77
2023-05-22T22:55:49.046Z,5.30
2023-05-22T22:58:21.269Z,5.43
2023-05-22T23:00:50.967Z,4.90
2023-05-22T23:03:20.644Z,5.33
2023-05-22T23:05:52.141Z,4.90
2023-05-22T23:08:22.364Z,5.03
2023-05-22T23:10:54.879Z,5.77
2023-05-22T23:13:24.571Z,5.10
2023-05-22T23:15:54.711Z,5.43
2023-05-22T23:18:27.041Z,5.40
2023-05-22T23:20:58.379Z,5.77
2023-05-22T23:23:28.472Z,5.10
2023-05-22T23:25:59.101Z,5.63
2023-05-22T23:28:29.069Z,4.87
2023-05-22T23:30:59.742Z,5.30
2023-05-22T23:33:31.592Z,4.70
2023-05-22T23:36:02.921Z,11.93
2023-05-22T23:38:32.791Z,9.60
2023-05-22T23:41:02.599Z,5.50
2023-05-22T23:43:35.285Z,6.43
2023-05-22T23:46:05.050Z,6.67
2023-05-22T23:48:34.967Z,5.20
2023-05-22T23:51:09.161Z,5.47
2023-05-22T23:53:38.902Z,6.00
2023-05-22T23:56:09.215Z,6.03
2023-05-22T23:58:39.808Z,5.93
